sensor_id;sensor_type;location;lat;lon;timestamp;temperature;humidity
30069;DHT22;16894;49.456;10.644;2022-12-11T00:01:29;-0.40;99.90
30069;DHT22;16894;49.456;10.644;2022-12-11T00:04:13;-0.40;99.90
30069;DHT22;16894;49.456;10.644;2022-12-11T00:06:57;-0.40;99.90
30069;DHT22;16894;49.456;10.644;2022-12-11T00:09:41;-0.30;99.90
30069;DHT22;16894;49.456;10.644;2022-12-11T00:12:25;-0.30;99.90
30069;DHT22;16894;49.456;10.644;2022-12-11T00:15:10;-0.20;99.90
30069;DHT22;16894;49.456;10.644;2022-12-11T00:17:55;-0.20;99.90
30069;DHT22;16894;49.456;10.644;2022-12-11T00:20:39;-0.20;99.90
30069;DHT22;16894;49.456;10.644;2022-12-11T00:23:23;-0.20;99.90
30069;DHT22;16894;49.456;10.644;2022-12-11T00:26:13;-0.20;99.90
30069;DHT22;16894;49.456;10.644;2022-12-11T00:28:57;-0.20;99.90
30069;DHT22;16894;49.456;10.644;2022-12-11T00:31:41;-0.10;99.90
30069;DHT22;16894;49.456;10.644;2022-12-11T00:34:26;-0.10;99.90
30069;DHT22;16894;49.456;10.644;2022-12-11T00:37:10;-0.10;99.90
30069;DHT22;16894;49.456;10.644;2022-12-11T00:39:54;-0.10;99.90
30069;DHT22;16894;49.456;10.644;2022-12-11T00:42:38;-0.10;99.90
30069;DHT22;16894;49.456;10.644;2022-12-11T00:45:22;-0.10;99.90
30069;DHT22;16894;49.456;10.644;2022-12-11T00:48:06;-0.10;99.90
30069;DHT22;16894;49.456;10.644;2022-12-11T00:50:50;-0.10;99.90
30069;DHT22;16894;49.456;10.644;2022-12-11T00:53:34;-0.10;99.90
30069;DHT22;16894;49.456;10.644;2022-12-11T00:56:20;0.00;99.90
30069;DHT22;16894;49.456;10.644;2022-12-11T00:59:05;-0.10;99.90
30069;DHT22;16894;49.456;10.644;2022-12-11T01:01:49;-0.10;99.90
30069;DHT22;16894;49.456;10.644;2022-12-11T01:04:35;0.00;99.90
30069;DHT22;16894;49.456;10.644;2022-12-11T01:07:19;0.00;99.90
30069;DHT22;16894;49.456;10.644;2022-12-11T01:10:04;0.00;99.90
30069;DHT22;16894;49.456;10.644;2022-12-11T01:13:06;0.00;99.90
30069;DHT22;16894;49.456;10.644;2022-12-11T01:15:51;-0.10;99.90
30069;DHT22;16894;49.456;10.644;2022-12-11T01:18:35;-0.10;99.90
30069;DHT22;16894;49.456;10.644;2022-12-11T01:21:20;-0.10;99.90
30069;DHT22;16894;49.456;10.644;2022-12-11T01:24:04;-0.10;99.90
30069;DHT22;16894;49.456;10.644;2022-12-11T01:26:49;-0.20;99.90
30069;DHT22;16894;49.456;10.644;2022-12-11T01:29:33;-0.20;99.90
30069;DHT22;16894;49.456;10.644;2022-12-11T01:32:17;-0.30;99.90
30069;DHT22;16894;49.456;10.644;2022-12-11T01:35:03;-0.30;99.90
30069;DHT22;16894;49.456;10.644;2022-12-11T01:37:48;-0.30;99.90
30069;DHT22;16894;49.456;10.644;2022-12-11T01:40:32;-0.30;99.90
30069;DHT22;16894;49.456;10.644;2022-12-11T01:43:16;-0.40;99.90
30069;DHT22;16894;49.456;10.644;2022-12-11T01:46:01;-0.40;99.90
30069;DHT22;16894;49.456;10.644;2022-12-11T01:48:45;-0.40;99.90
30069;DHT22;16894;49.456;10.644;2022-12-11T01:51:30;-0.40;99.90
30069;DHT22;16894;49.456;10.644;2022-12-11T01:54:17;-0.50;99.90
30069;DHT22;16894;49.456;10.644;2022-12-11T01:57:05;-0.60;99.90
30069;DHT22;16894;49.456;10.644;2022-12-11T01:59:51;-0.60;99.90
30069;DHT22;16894;49.456;10.644;2022-12-11T02:02:35;-0.60;99.90
30069;DHT22;16894;49.456;10.644;2022-12-11T02:05:20;-0.60;99.90
30069;DHT22;16894;49.456;10.644;2022-12-11T02:08:05;-0.60;99.90
30069;DHT22;16894;49.456;10.644;2022-12-11T02:11:13;-0.60;99.90
30069;DHT22;16894;49.456;10.644;2022-12-11T02:17:50;-0.60;99.90
30069;DHT22;16894;49.456;10.644;2022-12-11T02:21:12;-0.70;99.90
30069;DHT22;16894;49.456;10.644;2022-12-11T02:27:40;-0.70;99.90
30069;DHT22;16894;49.456;10.644;2022-12-11T02:30:28;-0.70;99.90
30069;DHT22;16894;49.456;10.644;2022-12-11T02:33:14;-0.70;99.90
30069;DHT22;16894;49.456;10.644;2022-12-11T02:36:00;-0.70;99.90
30069;DHT22;16894;49.456;10.644;2022-12-11T02:38:47;-0.70;99.90
30069;DHT22;16894;49.456;10.644;2022-12-11T02:41:34;-0.70;99.90
30069;DHT22;16894;49.456;10.644;2022-12-11T02:44:24;-0.70;99.90
30069;DHT22;16894;49.456;10.644;2022-12-11T02:47:11;-0.70;99.90
30069;DHT22;16894;49.456;10.644;2022-12-11T02:49:58;-0.70;99.90
30069;DHT22;16894;49.456;10.644;2022-12-11T02:52:45;-0.80;99.90
30069;DHT22;16894;49.456;10.644;2022-12-11T02:55:30;-0.80;99.90
30069;DHT22;16894;49.456;10.644;2022-12-11T02:58:21;-0.80;99.90
30069;DHT22;16894;49.456;10.644;2022-12-11T03:01:07;-0.70;99.90
30069;DHT22;16894;49.456;10.644;2022-12-11T03:03:52;-0.70;99.90
30069;DHT22;16894;49.456;10.644;2022-12-11T03:06:43;-0.70;99.90
30069;DHT22;16894;49.456;10.644;2022-12-11T03:09:28;-0.80;99.90
30069;DHT22;16894;49.456;10.644;2022-12-11T03:12:19;-0.80;99.90
30069;DHT22;16894;49.456;10.644;2022-12-11T03:15:07;-0.80;99.90
30069;DHT22;16894;49.456;10.644;2022-12-11T03:18:08;-0.80;99.90
30069;DHT22;16894;49.456;10.644;2022-12-11T03:21:03;-0.70;99.90
30069;DHT22;16894;49.456;10.644;2022-12-11T03:23:57;-0.70;99.90
30069;DHT22;16894;49.456;10.644;2022-12-11T03:26:51;-0.70;99.90
30069;DHT22;16894;49.456;10.644;2022-12-11T03:29:40;-0.80;99.90
30069;DHT22;16894;49.456;10.644;2022-12-11T03:32:33;-0.80;99.90
30069;DHT22;16894;49.456;10.644;2022-12-11T03:35:39;-0.80;99.90
30069;DHT22;16894;49.456;10.644;2022-12-11T03:38:30;-0.80;99.90
30069;DHT22;16894;49.456;10.644;2022-12-11T03:41:17;-0.80;99.90
30069;DHT22;16894;49.456;10.644;2022-12-11T03:44:02;-0.70;99.90
30069;DHT22;16894;49.456;10.644;2022-12-11T03:46:47;-0.70;99.90
30069;DHT22;16894;49.456;10.644;2022-12-11T03:49:39;-0.70;99.90
30069;DHT22;16894;49.456;10.644;2022-12-11T03:52:25;-0.80;99.90
30069;DHT22;16894;49.456;10.644;2022-12-11T03:55:13;-0.80;99.90
30069;DHT22;16894;49.456;10.644;2022-12-11T03:57:58;-0.80;99.90
30069;DHT22;16894;49.456;10.644;2022-12-11T04:00:42;-0.80;99.90
30069;DHT22;16894;49.456;10.644;2022-12-11T04:03:27;-0.80;99.90
30069;DHT22;16894;49.456;10.644;2022-12-11T04:06:11;-0.80;99.90
30069;DHT22;16894;49.456;10.644;2022-12-11T04:08:55;-0.80;99.90
30069;DHT22;16894;49.456;10.644;2022-12-11T04:11:39;-0.80;99.90
30069;DHT22;16894;49.456;10.644;2022-12-11T04:14:26;-0.80;99.90
30069;DHT22;16894;49.456;10.644;2022-12-11T04:17:31;-0.80;99.90
30069;DHT22;16894;49.456;10.644;2022-12-11T04:20:34;-0.80;99.90
30069;DHT22;16894;49.456;10.644;2022-12-11T04:23:37;-0.80;99.90
30069;DHT22;16894;49.456;10.644;2022-12-11T04:26:44;-0.70;99.90
30069;DHT22;16894;49.456;10.644;2022-12-11T04:29:29;-0.80;99.90
30069;DHT22;16894;49.456;10.644;2022-12-11T04:32:13;-0.80;99.90
30069;DHT22;16894;49.456;10.644;2022-12-11T04:34:57;-0.80;99.90
30069;DHT22;16894;49.456;10.644;2022-12-11T04:37:41;-0.80;99.90
30069;DHT22;16894;49.456;10.644;2022-12-11T04:40:25;-0.80;99.90
30069;DHT22;16894;49.456;10.644;2022-12-11T04:43:10;-0.80;99.90
30069;DHT22;16894;49.456;10.644;2022-12-11T04:46:08;-0.80;99.90
30069;DHT22;16894;49.456;10.644;2022-12-11T04:48:53;-0.80;99.90
30069;DHT22;16894;49.456;10.644;2022-12-11T04:51:37;-0.80;99.90
30069;DHT22;16894;49.456;10.644;2022-12-11T04:54:21;-0.70;99.90
30069;DHT22;16894;49.456;10.644;2022-12-11T04:57:05;-0.80;99.90
30069;DHT22;16894;49.456;10.644;2022-12-11T04:59:50;-0.80;99.90
30069;DHT22;16894;49.456;10.644;2022-12-11T05:02:35;-0.80;99.90
30069;DHT22;16894;49.456;10.644;2022-12-11T05:05:20;-0.90;99.90
30069;DHT22;16894;49.456;10.644;2022-12-11T05:08:04;-1.00;99.90
30069;DHT22;16894;49.456;10.644;2022-12-11T05:11:00;-1.00;99.90
30069;DHT22;16894;49.456;10.644;2022-12-11T05:13:45;-1.00;99.90
30069;DHT22;16894;49.456;10.644;2022-12-11T05:16:29;-1.00;99.90
30069;DHT22;16894;49.456;10.644;2022-12-11T05:19:13;-1.10;99.90
30069;DHT22;16894;49.456;10.644;2022-12-11T05:21:58;-1.20;99.90
30069;DHT22;16894;49.456;10.644;2022-12-11T05:24:43;-1.40;99.90
30069;DHT22;16894;49.456;10.644;2022-12-11T05:27:28;-1.40;99.90
30069;DHT22;16894;49.456;10.644;2022-12-11T05:30:12;-1.50;99.90
30069;DHT22;16894;49.456;10.644;2022-12-11T05:32:56;-1.60;99.90
30069;DHT22;16894;49.456;10.644;2022-12-11T05:35:46;-1.70;99.90
30069;DHT22;16894;49.456;10.644;2022-12-11T05:38:31;-1.80;99.90
30069;DHT22;16894;49.456;10.644;2022-12-11T05:41:18;-1.90;99.90
30069;DHT22;16894;49.456;10.644;2022-12-11T05:44:02;-2.00;99.90
30069;DHT22;16894;49.456;10.644;2022-12-11T05:46:46;-2.10;99.90
30069;DHT22;16894;49.456;10.644;2022-12-11T05:49:30;-2.10;99.90
30069;DHT22;16894;49.456;10.644;2022-12-11T05:52:14;-2.20;99.90
30069;DHT22;16894;49.456;10.644;2022-12-11T05:54:59;-2.30;99.90
30069;DHT22;16894;49.456;10.644;2022-12-11T05:57:44;-2.40;99.90
30069;DHT22;16894;49.456;10.644;2022-12-11T06:00:28;-2.40;99.90
30069;DHT22;16894;49.456;10.644;2022-12-11T06:03:12;-2.40;99.90
30069;DHT22;16894;49.456;10.644;2022-12-11T06:05:59;-2.40;99.90
30069;DHT22;16894;49.456;10.644;2022-12-11T06:08:44;-2.50;99.90
30069;DHT22;16894;49.456;10.644;2022-12-11T06:11:30;-2.50;99.90
30069;DHT22;16894;49.456;10.644;2022-12-11T06:14:15;-2.60;99.90
30069;DHT22;16894;49.456;10.644;2022-12-11T06:16:59;-2.50;99.90
30069;DHT22;16894;49.456;10.644;2022-12-11T06:19:44;-2.40;99.90
30069;DHT22;16894;49.456;10.644;2022-12-11T06:22:29;-2.30;99.90
30069;DHT22;16894;49.456;10.644;2022-12-11T06:25:13;-2.20;99.90
30069;DHT22;16894;49.456;10.644;2022-12-11T06:27:58;-2.10;99.90
30069;DHT22;16894;49.456;10.644;2022-12-11T06:30:42;-2.10;99.90
30069;DHT22;16894;49.456;10.644;2022-12-11T06:33:27;-2.10;99.90
30069;DHT22;16894;49.456;10.644;2022-12-11T06:36:18;-2.00;99.90
30069;DHT22;16894;49.456;10.644;2022-12-11T06:39:02;-2.00;99.90
30069;DHT22;16894;49.456;10.644;2022-12-11T06:41:47;-2.00;99.90
30069;DHT22;16894;49.456;10.644;2022-12-11T06:44:31;-2.00;99.90
30069;DHT22;16894;49.456;10.644;2022-12-11T06:47:15;-2.00;99.90
30069;DHT22;16894;49.456;10.644;2022-12-11T06:49:59;-2.00;99.90
30069;DHT22;16894;49.456;10.644;2022-12-11T06:52:45;-2.00;99.90
30069;DHT22;16894;49.456;10.644;2022-12-11T06:55:29;-2.10;99.90
30069;DHT22;16894;49.456;10.644;2022-12-11T06:58:13;-2.10;99.90
30069;DHT22;16894;49.456;10.644;2022-12-11T07:00:58;-2.10;99.90
30069;DHT22;16894;49.456;10.644;2022-12-11T07:03:42;-2.10;99.90
30069;DHT22;16894;49.456;10.644;2022-12-11T07:06:27;-2.10;99.90
30069;DHT22;16894;49.456;10.644;2022-12-11T07:09:11;-2.10;99.90
30069;DHT22;16894;49.456;10.644;2022-12-11T07:11:56;-2.00;99.90
30069;DHT22;16894;49.456;10.644;2022-12-11T07:14:40;-1.90;99.90
30069;DHT22;16894;49.456;10.644;2022-12-11T07:17:25;-1.90;99.90
30069;DHT22;16894;49.456;10.644;2022-12-11T07:20:09;-1.80;99.90
30069;DHT22;16894;49.456;10.644;2022-12-11T07:22:53;-1.90;99.90
30069;DHT22;16894;49.456;10.644;2022-12-11T07:25:37;-1.90;99.90
30069;DHT22;16894;49.456;10.644;2022-12-11T07:28:22;-1.80;99.90
30069;DHT22;16894;49.456;10.644;2022-12-11T07:31:07;-1.80;99.90
30069;DHT22;16894;49.456;10.644;2022-12-11T07:33:56;-1.70;99.90
30069;DHT22;16894;49.456;10.644;2022-12-11T07:36:41;-1.70;99.90
30069;DHT22;16894;49.456;10.644;2022-12-11T07:39:26;-1.60;99.90
30069;DHT22;16894;49.456;10.644;2022-12-11T07:42:10;-1.50;99.90
30069;DHT22;16894;49.456;10.644;2022-12-11T07:44:54;-1.50;99.90
30069;DHT22;16894;49.456;10.644;2022-12-11T07:47:38;-1.40;99.90
30069;DHT22;16894;49.456;10.644;2022-12-11T07:50:23;-1.30;99.90
30069;DHT22;16894;49.456;10.644;2022-12-11T07:53:08;-1.30;99.90
30069;DHT22;16894;49.456;10.644;2022-12-11T07:55:52;-1.30;99.90
30069;DHT22;16894;49.456;10.644;2022-12-11T07:58:36;-1.30;99.90
30069;DHT22;16894;49.456;10.644;2022-12-11T08:01:23;-1.30;99.90
30069;DHT22;16894;49.456;10.644;2022-12-11T08:04:11;-1.30;99.90
30069;DHT22;16894;49.456;10.644;2022-12-11T08:06:58;-1.30;99.90
30069;DHT22;16894;49.456;10.644;2022-12-11T08:09:23;-1.40;99.90
30069;DHT22;16894;49.456;10.644;2022-12-11T08:11:49;-1.50;99.90
30069;DHT22;16894;49.456;10.644;2022-12-11T08:14:15;-1.50;99.90
30069;DHT22;16894;49.456;10.644;2022-12-11T08:16:41;-1.40;99.90
30069;DHT22;16894;49.456;10.644;2022-12-11T08:19:10;-1.30;99.90
30069;DHT22;16894;49.456;10.644;2022-12-11T08:21:35;-1.20;99.90
30069;DHT22;16894;49.456;10.644;2022-12-11T08:24:01;-1.10;99.90
30069;DHT22;16894;49.456;10.644;2022-12-11T08:26:29;-1.00;99.90
30069;DHT22;16894;49.456;10.644;2022-12-11T08:28:56;-1.00;99.90
30069;DHT22;16894;49.456;10.644;2022-12-11T08:31:22;-1.00;99.90
30069;DHT22;16894;49.456;10.644;2022-12-11T08:33:48;-0.80;99.90
30069;DHT22;16894;49.456;10.644;2022-12-11T08:36:15;-0.80;99.90
30069;DHT22;16894;49.456;10.644;2022-12-11T08:38:41;-0.90;99.90
30069;DHT22;16894;49.456;10.644;2022-12-11T08:41:12;-0.80;99.90
30069;DHT22;16894;49.456;10.644;2022-12-11T08:43:38;-0.90;99.90
30069;DHT22;16894;49.456;10.644;2022-12-11T08:46:04;-0.90;99.90
30069;DHT22;16894;49.456;10.644;2022-12-11T08:48:32;-0.80;99.90
30069;DHT22;16894;49.456;10.644;2022-12-11T08:50:59;-0.80;99.90
30069;DHT22;16894;49.456;10.644;2022-12-11T08:53:27;-0.60;99.90
30069;DHT22;16894;49.456;10.644;2022-12-11T08:55:53;-0.60;99.90
30069;DHT22;16894;49.456;10.644;2022-12-11T08:58:19;-0.60;99.90
30069;DHT22;16894;49.456;10.644;2022-12-11T09:00:45;-0.50;99.90
30069;DHT22;16894;49.456;10.644;2022-12-11T09:03:10;-0.50;99.90
30069;DHT22;16894;49.456;10.644;2022-12-11T09:05:37;-0.40;99.90
30069;DHT22;16894;49.456;10.644;2022-12-11T09:08:02;-0.40;99.90
30069;DHT22;16894;49.456;10.644;2022-12-11T09:10:28;-0.30;99.90
30069;DHT22;16894;49.456;10.644;2022-12-11T09:12:54;-0.30;99.90
30069;DHT22;16894;49.456;10.644;2022-12-11T09:15:19;-0.20;99.90
30069;DHT22;16894;49.456;10.644;2022-12-11T09:17:45;-0.20;99.90
30069;DHT22;16894;49.456;10.644;2022-12-11T09:20:10;-0.20;99.90
30069;DHT22;16894;49.456;10.644;2022-12-11T09:22:36;-0.10;99.90
30069;DHT22;16894;49.456;10.644;2022-12-11T09:25:01;-0.20;99.90
30069;DHT22;16894;49.456;10.644;2022-12-11T09:27:27;-0.30;99.90
30069;DHT22;16894;49.456;10.644;2022-12-11T09:29:53;-0.20;99.90
30069;DHT22;16894;49.456;10.644;2022-12-11T09:32:19;-0.10;99.90
30069;DHT22;16894;49.456;10.644;2022-12-11T09:34:44;-0.20;99.90
30069;DHT22;16894;49.456;10.644;2022-12-11T09:37:10;-0.10;99.90
30069;DHT22;16894;49.456;10.644;2022-12-11T09:39:36;-0.10;99.90
30069;DHT22;16894;49.456;10.644;2022-12-11T09:42:34;-0.10;99.90
30069;DHT22;16894;49.456;10.644;2022-12-11T09:45:12;0.00;99.90
30069;DHT22;16894;49.456;10.644;2022-12-11T09:47:51;0.00;99.90
30069;DHT22;16894;49.456;10.644;2022-12-11T09:50:22;0.00;99.90
30069;DHT22;16894;49.456;10.644;2022-12-11T09:53:04;-0.10;99.90
30069;DHT22;16894;49.456;10.644;2022-12-11T09:58:22;-0.10;99.90
30069;DHT22;16894;49.456;10.644;2022-12-11T10:01:25;0.00;99.90
30069;DHT22;16894;49.456;10.644;2022-12-11T10:06:58;0.00;99.90
30069;DHT22;16894;49.456;10.644;2022-12-11T10:17:37;0.20;99.90
30069;DHT22;16894;49.456;10.644;2022-12-11T10:20:23;0.30;99.90
30069;DHT22;16894;49.456;10.644;2022-12-11T10:22:51;0.40;99.90
30069;DHT22;16894;49.456;10.644;2022-12-11T10:25:25;0.40;99.90
30069;DHT22;16894;49.456;10.644;2022-12-11T10:27:52;0.40;99.90
30069;DHT22;16894;49.456;10.644;2022-12-11T10:30:21;0.40;99.90
30069;DHT22;16894;49.456;10.644;2022-12-11T10:32:57;0.50;99.90
30069;DHT22;16894;49.456;10.644;2022-12-11T10:38:29;0.40;99.90
30069;DHT22;16894;49.456;10.644;2022-12-11T10:41:01;0.40;99.90
30069;DHT22;16894;49.456;10.644;2022-12-11T10:43:36;0.30;99.90
30069;DHT22;16894;49.456;10.644;2022-12-11T10:46:04;0.30;99.90
30069;DHT22;16894;49.456;10.644;2022-12-11T10:48:30;0.30;99.90
30069;DHT22;16894;49.456;10.644;2022-12-11T10:51:03;0.30;99.90
30069;DHT22;16894;49.456;10.644;2022-12-11T10:53:30;0.30;99.90
30069;DHT22;16894;49.456;10.644;2022-12-11T10:55:56;0.40;99.90
30069;DHT22;16894;49.456;10.644;2022-12-11T10:58:25;0.40;99.90
30069;DHT22;16894;49.456;10.644;2022-12-11T11:01:01;0.40;99.90
30069;DHT22;16894;49.456;10.644;2022-12-11T11:03:28;0.40;99.90
30069;DHT22;16894;49.456;10.644;2022-12-11T11:06:26;0.40;99.90
30069;DHT22;16894;49.456;10.644;2022-12-11T11:08:58;0.40;99.90
30069;DHT22;16894;49.456;10.644;2022-12-11T11:11:33;0.40;99.90
30069;DHT22;16894;49.456;10.644;2022-12-11T11:14:15;0.40;99.90
30069;DHT22;16894;49.456;10.644;2022-12-11T11:16:46;0.40;99.90
30069;DHT22;16894;49.456;10.644;2022-12-11T11:19:26;0.40;99.90
30069;DHT22;16894;49.456;10.644;2022-12-11T11:22:00;0.40;99.90
30069;DHT22;16894;49.456;10.644;2022-12-11T11:24:55;0.40;99.90
30069;DHT22;16894;49.456;10.644;2022-12-11T11:29:59;0.40;99.90
30069;DHT22;16894;49.456;10.644;2022-12-11T11:32:36;0.40;99.90
30069;DHT22;16894;49.456;10.644;2022-12-11T11:35:18;0.40;99.90
30069;DHT22;16894;49.456;10.644;2022-12-11T11:37:52;0.50;99.90
30069;DHT22;16894;49.456;10.644;2022-12-11T11:42:55;0.70;99.90
30069;DHT22;16894;49.456;10.644;2022-12-11T11:45:27;0.70;99.90
30069;DHT22;16894;49.456;10.644;2022-12-11T11:50:45;0.70;99.90
30069;DHT22;16894;49.456;10.644;2022-12-11T11:53:19;0.60;99.90
30069;DHT22;16894;49.456;10.644;2022-12-11T11:56:26;0.50;99.90
30069;DHT22;16894;49.456;10.644;2022-12-11T11:58:51;0.50;99.90
30069;DHT22;16894;49.456;10.644;2022-12-11T12:01:20;0.50;99.90
30069;DHT22;16894;49.456;10.644;2022-12-11T12:03:47;0.40;99.90
30069;DHT22;16894;49.456;10.644;2022-12-11T12:09:18;0.20;99.90
30069;DHT22;16894;49.456;10.644;2022-12-11T12:20:40;0.10;99.90
30069;DHT22;16894;49.456;10.644;2022-12-11T12:26:24;0.10;99.90
30069;DHT22;16894;49.456;10.644;2022-12-11T12:37:49;0.10;99.90
30069;DHT22;16894;49.456;10.644;2022-12-11T12:45:52;0.10;99.90
30069;DHT22;16894;49.456;10.644;2022-12-11T12:48:24;0.10;99.90
30069;DHT22;16894;49.456;10.644;2022-12-11T12:50:51;0.20;99.90
30069;DHT22;16894;49.456;10.644;2022-12-11T12:53:21;0.20;99.90
30069;DHT22;16894;49.456;10.644;2022-12-11T12:55:48;0.30;99.90
30069;DHT22;16894;49.456;10.644;2022-12-11T13:01:20;0.50;99.90
30069;DHT22;16894;49.456;10.644;2022-12-11T13:03:57;0.30;99.90
30069;DHT22;16894;49.456;10.644;2022-12-11T13:06:37;0.10;99.90
30069;DHT22;16894;49.456;10.644;2022-12-11T13:09:21;0.00;99.90
30069;DHT22;16894;49.456;10.644;2022-12-11T13:11:53;0.00;99.90
30069;DHT22;16894;49.456;10.644;2022-12-11T13:14:31;0.10;99.90
30069;DHT22;16894;49.456;10.644;2022-12-11T13:19:45;0.10;99.90
30069;DHT22;16894;49.456;10.644;2022-12-11T13:27:35;0.00;99.90
30069;DHT22;16894;49.456;10.644;2022-12-11T13:32:55;-0.20;99.90
30069;DHT22;16894;49.456;10.644;2022-12-11T13:35:23;-0.10;99.90
30069;DHT22;16894;49.456;10.644;2022-12-11T13:37:49;-0.20;99.90
30069;DHT22;16894;49.456;10.644;2022-12-11T13:40:20;-0.20;99.90
30069;DHT22;16894;49.456;10.644;2022-12-11T13:45:38;-0.40;99.90
30069;DHT22;16894;49.456;10.644;2022-12-11T13:50:49;-0.40;99.90
30069;DHT22;16894;49.456;10.644;2022-12-11T13:53:17;-0.50;99.90
30069;DHT22;16894;49.456;10.644;2022-12-11T13:55:43;-0.50;99.90
30069;DHT22;16894;49.456;10.644;2022-12-11T13:58:15;-0.50;99.90
30069;DHT22;16894;49.456;10.644;2022-12-11T14:00:41;-0.50;99.90
30069;DHT22;16894;49.456;10.644;2022-12-11T14:03:07;-0.50;99.90
30069;DHT22;16894;49.456;10.644;2022-12-11T14:05:33;-0.60;99.90
30069;DHT22;16894;49.456;10.644;2022-12-11T14:08:05;-0.60;99.90
30069;DHT22;16894;49.456;10.644;2022-12-11T14:10:32;-0.70;99.90
30069;DHT22;16894;49.456;10.644;2022-12-11T14:15:24;-0.80;99.90
30069;DHT22;16894;49.456;10.644;2022-12-11T14:17:51;-0.80;99.90
30069;DHT22;16894;49.456;10.644;2022-12-11T14:20:28;-0.80;99.90
30069;DHT22;16894;49.456;10.644;2022-12-11T14:25:51;-0.90;99.90
30069;DHT22;16894;49.456;10.644;2022-12-11T14:28:17;-0.90;99.90
30069;DHT22;16894;49.456;10.644;2022-12-11T14:30:49;-0.80;99.90
30069;DHT22;16894;49.456;10.644;2022-12-11T14:33:16;-0.70;99.90
30069;DHT22;16894;49.456;10.644;2022-12-11T14:35:44;-0.80;99.90
30069;DHT22;16894;49.456;10.644;2022-12-11T14:38:17;-0.70;99.90
30069;DHT22;16894;49.456;10.644;2022-12-11T14:40:48;-0.70;99.90
30069;DHT22;16894;49.456;10.644;2022-12-11T14:43:26;-0.80;99.90
30069;DHT22;16894;49.456;10.644;2022-12-11T14:45:56;-0.80;99.90
30069;DHT22;16894;49.456;10.644;2022-12-11T14:48:26;-0.80;99.90
30069;DHT22;16894;49.456;10.644;2022-12-11T14:50:55;-0.80;99.90
30069;DHT22;16894;49.456;10.644;2022-12-11T14:53:28;-0.90;99.90
30069;DHT22;16894;49.456;10.644;2022-12-11T14:55:58;-0.90;99.90
30069;DHT22;16894;49.456;10.644;2022-12-11T14:58:26;-0.90;99.90
30069;DHT22;16894;49.456;10.644;2022-12-11T15:03:33;-1.00;99.90
30069;DHT22;16894;49.456;10.644;2022-12-11T15:05:59;-1.00;99.90
30069;DHT22;16894;49.456;10.644;2022-12-11T15:08:37;-0.90;99.90
30069;DHT22;16894;49.456;10.644;2022-12-11T15:11:15;-1.00;99.90
30069;DHT22;16894;49.456;10.644;2022-12-11T15:16:15;-1.10;99.90
30069;DHT22;16894;49.456;10.644;2022-12-11T15:18:41;-1.10;99.90
30069;DHT22;16894;49.456;10.644;2022-12-11T15:21:09;-1.10;99.90
30069;DHT22;16894;49.456;10.644;2022-12-11T15:23:57;-1.10;99.90
30069;DHT22;16894;49.456;10.644;2022-12-11T15:26:36;-1.20;99.90
30069;DHT22;16894;49.456;10.644;2022-12-11T15:29:35;-1.20;99.90
30069;DHT22;16894;49.456;10.644;2022-12-11T15:37:36;-1.20;99.90
30069;DHT22;16894;49.456;10.644;2022-12-11T15:40:04;-1.30;99.90
30069;DHT22;16894;49.456;10.644;2022-12-11T15:42:35;-1.30;99.90
30069;DHT22;16894;49.456;10.644;2022-12-11T15:45:06;-1.30;99.90
30069;DHT22;16894;49.456;10.644;2022-12-11T15:47:32;-1.30;99.90
30069;DHT22;16894;49.456;10.644;2022-12-11T15:50:10;-1.30;99.90
30069;DHT22;16894;49.456;10.644;2022-12-11T15:52:37;-1.20;99.90
30069;DHT22;16894;49.456;10.644;2022-12-11T15:55:03;-1.30;99.90
30069;DHT22;16894;49.456;10.644;2022-12-11T15:57:29;-1.20;99.90
30069;DHT22;16894;49.456;10.644;2022-12-11T15:59:55;-1.20;99.90
30069;DHT22;16894;49.456;10.644;2022-12-11T16:02:20;-1.20;99.90
30069;DHT22;16894;49.456;10.644;2022-12-11T16:04:46;-1.20;99.90
30069;DHT22;16894;49.456;10.644;2022-12-11T16:07:16;-1.20;99.90
30069;DHT22;16894;49.456;10.644;2022-12-11T16:09:41;-1.10;99.90
30069;DHT22;16894;49.456;10.644;2022-12-11T16:12:07;-1.10;99.90
30069;DHT22;16894;49.456;10.644;2022-12-11T16:14:34;-1.10;99.90
30069;DHT22;16894;49.456;10.644;2022-12-11T16:17:03;-1.10;99.90
30069;DHT22;16894;49.456;10.644;2022-12-11T16:19:29;-1.10;99.90
30069;DHT22;16894;49.456;10.644;2022-12-11T16:21:54;-1.10;99.90
30069;DHT22;16894;49.456;10.644;2022-12-11T16:24:20;-1.10;99.90
30069;DHT22;16894;49.456;10.644;2022-12-11T16:26:45;-1.10;99.90
30069;DHT22;16894;49.456;10.644;2022-12-11T16:29:11;-1.10;99.90
30069;DHT22;16894;49.456;10.644;2022-12-11T16:31:36;-1.10;99.90
30069;DHT22;16894;49.456;10.644;2022-12-11T16:34:02;-1.10;99.90
30069;DHT22;16894;49.456;10.644;2022-12-11T16:36:28;-1.10;99.90
30069;DHT22;16894;49.456;10.644;2022-12-11T16:38:53;-1.20;99.90
30069;DHT22;16894;49.456;10.644;2022-12-11T16:41:19;-1.20;99.90
30069;DHT22;16894;49.456;10.644;2022-12-11T16:43:44;-1.30;99.90
30069;DHT22;16894;49.456;10.644;2022-12-11T16:46:10;-1.20;99.90
30069;DHT22;16894;49.456;10.644;2022-12-11T16:48:36;-1.20;99.90
30069;DHT22;16894;49.456;10.644;2022-12-11T16:51:01;-1.20;99.90
30069;DHT22;16894;49.456;10.644;2022-12-11T16:53:27;-1.20;99.90
30069;DHT22;16894;49.456;10.644;2022-12-11T16:55:52;-1.20;99.90
30069;DHT22;16894;49.456;10.644;2022-12-11T16:58:18;-1.30;99.90
30069;DHT22;16894;49.456;10.644;2022-12-11T17:00:48;-1.30;99.90
30069;DHT22;16894;49.456;10.644;2022-12-11T17:03:14;-1.40;99.90
30069;DHT22;16894;49.456;10.644;2022-12-11T17:05:41;-1.40;99.90
30069;DHT22;16894;49.456;10.644;2022-12-11T17:08:07;-1.30;99.90
30069;DHT22;16894;49.456;10.644;2022-12-11T17:10:38;-1.30;99.90
30069;DHT22;16894;49.456;10.644;2022-12-11T17:13:04;-1.40;99.90
30069;DHT22;16894;49.456;10.644;2022-12-11T17:15:29;-1.40;99.90
30069;DHT22;16894;49.456;10.644;2022-12-11T17:17:55;-1.40;99.90
30069;DHT22;16894;49.456;10.644;2022-12-11T17:20:20;-1.40;99.90
30069;DHT22;16894;49.456;10.644;2022-12-11T17:22:46;-1.40;99.90
30069;DHT22;16894;49.456;10.644;2022-12-11T17:25:12;-1.40;99.90
30069;DHT22;16894;49.456;10.644;2022-12-11T17:27:41;-1.40;99.90
30069;DHT22;16894;49.456;10.644;2022-12-11T17:30:07;-1.40;99.90
30069;DHT22;16894;49.456;10.644;2022-12-11T17:32:32;-1.40;99.90
30069;DHT22;16894;49.456;10.644;2022-12-11T17:34:58;-1.40;99.90
30069;DHT22;16894;49.456;10.644;2022-12-11T17:37:24;-1.40;99.90
30069;DHT22;16894;49.456;10.644;2022-12-11T17:39:49;-1.40;99.90
30069;DHT22;16894;49.456;10.644;2022-12-11T17:42:15;-1.40;99.90
30069;DHT22;16894;49.456;10.644;2022-12-11T17:44:40;-1.40;99.90
30069;DHT22;16894;49.456;10.644;2022-12-11T17:47:06;-1.40;99.90
30069;DHT22;16894;49.456;10.644;2022-12-11T17:49:32;-1.30;99.90
30069;DHT22;16894;49.456;10.644;2022-12-11T17:51:57;-1.30;99.90
30069;DHT22;16894;49.456;10.644;2022-12-11T17:54:23;-1.30;99.90
30069;DHT22;16894;49.456;10.644;2022-12-11T17:56:49;-1.30;99.90
30069;DHT22;16894;49.456;10.644;2022-12-11T17:59:16;-1.40;99.90